createdAt,value
2023-04-07T00:01:38.490Z,185
2023-04-07T00:05:41.033Z,185
2023-04-07T00:07:52.898Z,185
2023-04-07T00:11:44.626Z,185
2023-04-07T00:13:45.931Z,185
2023-04-07T00:15:47.947Z,185
2023-04-07T00:17:49.264Z,185
2023-04-07T00:20:34.568Z,185
2023-04-07T00:24:38.317Z,185
2023-04-07T00:28:40.786Z,185
2023-04-07T00:34:44.923Z,230
2023-04-07T00:38:47.514Z,224
2023-04-07T00:40:49.286Z,224
2023-04-07T00:44:52.407Z,224
2023-04-07T00:48:55.977Z,224
2023-04-07T00:50:57.174Z,224
2023-04-07T00:55:00.690Z,214
2023-04-07T01:01:06.010Z,215
2023-04-07T01:07:11.505Z,176
2023-04-07T01:11:22.674Z,173
2023-04-07T01:17:18.552Z,173
2023-04-07T01:21:31.471Z,360
2023-04-07T01:23:23.352Z,360
2023-04-07T01:27:26.110Z,126
2023-04-07T01:31:29.008Z,96
2023-04-07T01:33:30.562Z,113
2023-04-07T01:37:33.139Z,161
2023-04-07T01:43:36.439Z,108
2023-04-07T01:47:38.984Z,108
2023-04-07T01:49:40.919Z,108
2023-04-07T01:53:43.520Z,76
2023-04-07T01:59:55.239Z,112
2023-04-07T02:03:49.940Z,156
2023-04-07T02:05:51.593Z,156
2023-04-07T02:09:54.523Z,156
2023-04-07T02:13:57.651Z,156
2023-04-07T02:15:59.114Z,156
2023-04-07T02:20:02.015Z,156
2023-04-07T02:24:04.723Z,156
2023-04-07T02:26:05.752Z,156
2023-04-07T02:30:08.618Z,158
2023-04-07T02:32:10.405Z,158
2023-04-07T02:34:11.822Z,360
2023-04-07T02:36:13.824Z,64
2023-04-07T02:42:18.125Z,99
2023-04-07T02:44:19.838Z,99
2023-04-07T02:48:23.441Z,360
2023-04-07T02:52:26.474Z,360
2023-04-07T02:58:30.769Z,360
2023-04-07T03:02:34.387Z,112
2023-04-07T03:06:36.984Z,360
2023-04-07T03:08:38.571Z,360
2023-04-07T03:12:41.950Z,360
2023-04-07T03:14:43.006Z,168
2023-04-07T03:16:44.888Z,142
2023-04-07T03:18:46.081Z,142
2023-04-07T03:24:50.443Z,142
2023-04-07T03:30:54.920Z,88
2023-04-07T03:34:57.410Z,87
2023-04-07T03:41:02.023Z,90
2023-04-07T03:45:05.195Z,86
2023-04-07T03:47:06.713Z,360
2023-04-07T03:51:09.708Z,103
2023-04-07T03:55:12.572Z,103
2023-04-07T03:57:14.125Z,103
2023-04-07T04:01:16.800Z,103
2023-04-07T04:07:20.793Z,103
2023-04-07T04:13:25.043Z,103
2023-04-07T04:17:28.593Z,103
2023-04-07T04:23:33.209Z,108
2023-04-07T04:27:35.937Z,108
2023-04-07T04:29:37.859Z,108
2023-04-07T04:33:40.140Z,108
2023-04-07T04:37:42.907Z,108
2023-04-07T04:39:44.075Z,108
2023-04-07T04:43:47.834Z,151
2023-04-07T04:49:51.070Z,151
2023-04-07T04:53:54.772Z,151
2023-04-07T04:55:55.657Z,151
2023-04-07T04:59:59.211Z,151
2023-04-07T05:06:04.396Z,151
2023-04-07T05:10:07.996Z,116
2023-04-07T05:12:09.385Z,116
2023-04-07T05:16:12.312Z,116
2023-04-07T05:20:15.265Z,116
2023-04-07T05:22:16.366Z,116
2023-04-07T05:26:18.824Z,116
2023-04-07T05:32:23.349Z,116
2023-04-07T05:36:26.218Z,116
2023-04-07T05:38:27.710Z,116
2023-04-07T05:42:30.740Z,116
2023-04-07T05:48:35.639Z,360
2023-04-07T05:52:38.456Z,360
2023-04-07T05:54:39.590Z,360
2023-04-07T05:58:42.348Z,360
2023-04-07T06:02:44.508Z,360
2023-04-07T06:04:45.922Z,360
2023-04-07T06:08:49.175Z,360
2023-04-07T06:12:52.038Z,360
2023-04-07T06:14:53.612Z,360
2023-04-07T06:18:57.406Z,360
2023-04-07T06:20:59.195Z,360
2023-04-07T06:25:02.514Z,360
2023-04-07T06:31:06.219Z,360
2023-04-07T06:37:10.672Z,360
2023-04-07T06:41:13.385Z,360
2023-04-07T06:47:17.839Z,360
2023-04-07T06:51:20.698Z,360
2023-04-07T06:55:24.300Z,360
2023-04-07T06:57:25.436Z,360
2023-04-07T07:01:28.507Z,360
2023-04-07T07:03:29.894Z,360
2023-04-07T07:05:31.234Z,360
2023-04-07T07:08:16.791Z,360
2023-04-07T07:14:21.174Z,31
2023-04-07T07:18:24.465Z,31
2023-04-07T07:22:36.163Z,31
2023-04-07T07:24:28.627Z,31
2023-04-07T07:28:31.056Z,34
2023-04-07T07:30:32.941Z,34
2023-04-07T07:34:35.868Z,34
2023-04-07T07:38:46.771Z,34
2023-04-07T07:40:39.802Z,34
2023-04-07T07:44:42.637Z,34
2023-04-07T07:50:47.095Z,34
2023-04-07T07:56:51.601Z,113
2023-04-07T08:00:53.926Z,113
2023-04-07T08:06:58.415Z,113
2023-04-07T08:11:01.358Z,113
2023-04-07T08:13:02.579Z,111
2023-04-07T08:17:05.807Z,111
2023-04-07T08:21:08.152Z,111
2023-04-07T08:23:09.982Z,111
2023-04-07T08:27:12.449Z,111
2023-04-07T08:33:17.548Z,111
2023-04-07T08:37:19.985Z,111
2023-04-07T08:39:21.416Z,108
2023-04-07T08:43:24.271Z,111
2023-04-07T08:49:28.740Z,111
2023-04-07T08:53:31.645Z,111
2023-04-07T08:55:32.741Z,106
2023-04-07T08:59:35.172Z,111
2023-04-07T09:03:38.455Z,111
2023-04-07T09:05:39.606Z,111
2023-04-07T09:09:42.849Z,111
2023-04-07T09:13:45.669Z,111
2023-04-07T09:15:47.774Z,111
2023-04-07T09:19:51.051Z,118
2023-04-07T09:21:52.511Z,114
2023-04-07T09:23:53.893Z,117
2023-04-07T09:25:55.130Z,118
2023-04-07T09:31:58.754Z,117
2023-04-07T09:34:00.296Z,118
2023-04-07T09:38:03.026Z,117
2023-04-07T09:42:05.583Z,117
2023-04-07T09:48:09.356Z,117
2023-04-07T09:52:12.243Z,184
2023-04-07T09:54:13.398Z,184
2023-04-07T09:58:16.723Z,184
2023-04-07T10:02:18.714Z,184
2023-04-07T10:04:19.581Z,184
2023-04-07T10:08:23.636Z,184
2023-04-07T10:14:26.520Z,360
2023-04-07T10:18:28.689Z,359
2023-04-07T10:20:30.472Z,359
2023-04-07T10:24:33.512Z,359
2023-04-07T10:30:37.263Z,359
2023-04-07T10:34:40.120Z,359
2023-04-07T10:36:41.785Z,359
2023-04-07T10:40:44.119Z,359
2023-04-07T10:44:46.723Z,359
2023-04-07T10:46:47.937Z,359
2023-04-07T10:50:50.496Z,359
2023-04-07T10:54:53.392Z,359
2023-04-07T10:56:54.441Z,359
2023-04-07T11:00:57.082Z,359
2023-04-07T11:02:58.764Z,359
2023-04-07T11:04:59.693Z,358
2023-04-07T11:07:00.776Z,358
2023-04-07T11:13:04.455Z,359
2023-04-07T11:15:06.196Z,360
2023-04-07T11:19:09.087Z,359
2023-04-07T11:23:11.607Z,359
2023-04-07T11:27:13.617Z,358
2023-04-07T11:29:15.057Z,358
2023-04-07T11:33:18.260Z,358
2023-04-07T11:35:20.115Z,360
2023-04-07T11:39:22.752Z,358
2023-04-07T11:45:26.410Z,356
2023-04-07T11:47:27.785Z,356
2023-04-07T11:51:31.128Z,356
2023-04-07T11:55:33.939Z,356
2023-04-07T12:01:38.211Z,356
2023-04-07T12:05:40.082Z,356
2023-04-07T12:07:41.693Z,356
2023-04-07T12:11:44.393Z,357
2023-04-07T12:15:47.692Z,359
2023-04-07T12:17:48.611Z,356
2023-04-07T12:21:51.294Z,355
2023-04-07T12:27:55.101Z,355
2023-04-07T12:31:58.566Z,94
2023-04-07T12:34:00.336Z,94
2023-04-07T12:38:02.891Z,174
2023-04-07T12:44:06.397Z,175
2023-04-07T12:48:08.844Z,2
2023-04-07T12:50:10.297Z,3
2023-04-07T12:54:12.527Z,181
2023-04-07T12:58:15.744Z,117
2023-04-07T13:00:17.459Z,117
2023-04-07T13:04:19.776Z,119
2023-04-07T13:10:24.312Z,120
2023-04-07T13:14:27.146Z,120
2023-04-07T13:16:28.915Z,120
2023-04-07T13:20:32.363Z,69
2023-04-07T13:26:36.099Z,73
2023-04-07T13:30:39.336Z,74
2023-04-07T13:32:41.026Z,74
2023-04-07T13:36:43.637Z,360
2023-04-07T13:40:45.856Z,360
2023-04-07T13:42:47.625Z,83
2023-04-07T13:46:50.403Z,92
2023-04-07T13:50:52.902Z,132
2023-04-07T13:51:36.683Z,133
2023-04-07T13:53:37.641Z,132
2023-04-07T13:57:40.642Z,132
2023-04-07T14:03:45.114Z,97
2023-04-07T14:09:49.375Z,109
2023-04-07T14:13:51.824Z,125
2023-04-07T14:19:55.314Z,34
2023-04-07T14:23:58.309Z,312
2023-04-07T14:25:59.628Z,68
2023-04-07T14:30:02.639Z,68
2023-04-07T14:34:05.291Z,79
2023-04-07T14:36:06.852Z,80
2023-04-07T14:40:08.947Z,172
2023-04-07T14:46:14.180Z,91
2023-04-07T14:50:17.435Z,79
2023-04-07T14:52:18.576Z,117
2023-04-07T14:56:21.969Z,89
2023-04-07T15:02:25.473Z,360
2023-04-07T15:06:27.929Z,360
2023-04-07T15:08:28.799Z,360
2023-04-07T15:12:31.306Z,360
2023-04-07T15:16:33.726Z,360
2023-04-07T15:18:34.989Z,360
2023-04-07T15:22:37.384Z,360
2023-04-07T15:28:41.098Z,72
2023-04-07T15:32:43.379Z,64
2023-04-07T15:34:45.162Z,61
2023-04-07T15:36:46.923Z,68
2023-04-07T15:38:47.996Z,52
2023-04-07T15:44:52.875Z,68
2023-04-07T15:50:56.627Z,74
2023-04-07T15:55:00.177Z,74
2023-04-07T16:01:05.110Z,360
2023-04-07T16:05:07.660Z,96
2023-04-07T16:09:10.354Z,88
2023-04-07T16:11:11.882Z,88
2023-04-07T16:15:16.849Z,88
2023-04-07T16:17:15.912Z,26
2023-04-07T16:19:17.160Z,26
2023-04-07T16:21:19.005Z,29
2023-04-07T16:27:22.016Z,29
2023-04-07T16:33:26.405Z,29
2023-04-07T16:37:29.007Z,29
2023-04-07T16:43:32.753Z,29
2023-04-07T16:47:35.457Z,29
2023-04-07T16:49:37.052Z,29
2023-04-07T16:53:39.755Z,29
2023-04-07T16:57:42.595Z,29
2023-04-07T16:59:43.741Z,25
2023-04-07T17:03:46.591Z,26
2023-04-07T17:09:49.831Z,26
2023-04-07T17:13:52.606Z,26
2023-04-07T17:15:54.025Z,26
2023-04-07T17:19:57.226Z,26
2023-04-07T17:26:00.683Z,26
2023-04-07T17:30:03.586Z,26
2023-04-07T17:32:05.155Z,26
2023-04-07T17:36:07.939Z,26
2023-04-07T17:40:10.414Z,26
2023-04-07T17:42:11.724Z,26
2023-04-07T17:46:13.815Z,26
2023-04-07T17:50:16.313Z,26
2023-04-07T17:52:17.318Z,26
2023-04-07T17:56:20.712Z,26
2023-04-07T17:58:22.198Z,26
2023-04-07T18:00:23.723Z,26
2023-04-07T18:02:25.381Z,26
2023-04-07T18:08:29.150Z,314
2023-04-07T18:10:30.468Z,314
2023-04-07T18:12:39.531Z,311
2023-04-07T18:14:33.002Z,311
2023-04-07T18:18:36.119Z,311
2023-04-07T18:24:40.193Z,309
2023-04-07T18:28:43.144Z,309
2023-04-07T18:30:44.586Z,309
2023-04-07T18:34:47.797Z,309
2023-04-07T18:38:51.253Z,309
2023-04-07T18:40:52.538Z,309
2023-04-07T18:44:55.418Z,309
2023-04-07T18:50:59.801Z,309
2023-04-07T18:57:03.689Z,309
2023-04-07T19:01:06.776Z,309
2023-04-07T19:07:11.484Z,309
2023-04-07T19:11:14.139Z,314
2023-04-07T19:13:15.540Z,309
2023-04-07T19:17:18.641Z,309
2023-04-07T19:21:21.082Z,309
2023-04-07T19:23:22.088Z,309
2023-04-07T19:27:25.340Z,309
2023-04-07T19:33:29.841Z,309
2023-04-07T19:37:32.951Z,309
2023-04-07T19:39:34.591Z,310
2023-04-07T19:43:37.765Z,309
2023-04-07T19:49:42.383Z,309
2023-04-07T19:53:45.689Z,309
2023-04-07T19:55:46.970Z,309
2023-04-07T19:59:50.083Z,309
2023-04-07T20:03:53.308Z,309
2023-04-07T20:05:54.479Z,309
2023-04-07T20:09:57.036Z,309
2023-04-07T20:16:00.510Z,309
2023-04-07T20:20:03.342Z,309
2023-04-07T20:22:05.030Z,309
2023-04-07T20:26:08.436Z,309
2023-04-07T20:32:13.774Z,309
2023-04-07T20:36:16.315Z,309
2023-04-07T20:37:00.176Z,309
2023-04-07T20:43:04.695Z,309
2023-04-07T20:47:06.966Z,309
2023-04-07T20:51:10.053Z,310
2023-04-07T20:53:11.949Z,309
2023-04-07T20:57:14.836Z,309
2023-04-07T20:59:16.431Z,309
2023-04-07T21:01:17.591Z,309
2023-04-07T21:03:19.440Z,309
2023-04-07T21:09:23.266Z,309
2023-04-07T21:11:25.128Z,309
2023-04-07T21:15:28.144Z,309
2023-04-07T21:19:31.373Z,309
2023-04-07T21:25:35.785Z,309
2023-04-07T21:29:38.779Z,309
2023-04-07T21:31:40.685Z,309
2023-04-07T21:35:43.539Z,309
2023-04-07T21:39:46.733Z,309
2023-04-07T21:41:48.686Z,309
2023-04-07T21:45:51.566Z,309
2023-04-07T21:51:55.637Z,309
2023-04-07T21:58:00.660Z,309
2023-04-07T22:02:03.885Z,309
2023-04-07T22:08:07.834Z,309
2023-04-07T22:12:11.453Z,309
2023-04-07T22:14:13.417Z,309
2023-04-07T22:18:17.340Z,309
2023-04-07T22:22:19.993Z,309
2023-04-07T22:24:21.931Z,309
2023-04-07T22:28:25.010Z,309
2023-04-07T22:34:29.779Z,309
2023-04-07T22:36:31.704Z,309
2023-04-07T22:40:34.253Z,309
2023-04-07T22:44:37.157Z,309
2023-04-07T22:50:41.416Z,309
2023-04-07T22:54:44.854Z,309
2023-04-07T22:56:45.892Z,309
2023-04-07T23:00:49.260Z,311
2023-04-07T23:04:51.995Z,309
2023-04-07T23:06:53.176Z,309
2023-04-07T23:10:56.339Z,313
2023-04-07T23:17:00.833Z,309
2023-04-07T23:21:03.344Z,309
2023-04-07T23:23:04.526Z,309
2023-04-07T23:27:07.175Z,309
2023-04-07T23:33:11.001Z,309
2023-04-07T23:37:14.146Z,309
2023-04-07T23:39:15.449Z,313
2023-04-07T23:43:18.973Z,312
2023-04-07T23:47:22.211Z,317
2023-04-07T23:49:23.175Z,313
2023-04-07T23:53:26.074Z,318
2023-04-07T23:59:30.078Z,309
